Weather forecast for Bulen (Булен)

Russia, 519 m
N52.847, E104.807


Sounding

Red line — air temperature ˚C.
Blue line — thermal bubble temperature ˚C.
Green line — dew point temperature ˚C.
Wind speed is in meters per second.

Table forecast

GFS 0.25˚ model

temp. wind gust humid. clouds prec. press. hpbl
Sat24 00:00 -1 194.0 ssw 1 1 72 100 0.0 1042 11
03:00 -1 66.0 ene 1 1 70 100 0.0 1041 10
06:00 -1 75.0 ene 2 6 71 100 0.0 1039 218
09:00 0 110.0 ese 2 6 54 100 0.3 1037 395
12:00 2 106.0 ese 6 9 61 100 0.6 1033 816
15:00 5 118.0 ese 5 8 68 100 1.0 1028 829
18:00 5 141.0 se 3 9 62 100 0.1 1026 806
21:00 3 47.0 ne 1 1 86 100 1.1 1025 21
 
Sun25 00:00 2 262.0 w 0 1 88 100 0.0 1025 10
03:00 1 257.0 wsw 1 1 96 100 0.2 1024 102
06:00 0 264.0 w 2 3 98 100 0.6 1024 138
09:00 1 294.0 wnw 4 7 85 100 0.6 1024 517
12:00 3 306.0 nw 5 7 68 100 0.0 1024 947
15:00 6 324.0 nw 6 7 55 100 0.0 1022 1297
18:00 6 331.0 nnw 6 7 48 69 0.0 1021 1479
21:00 2 345.0 nnw 6 9 66 25 0.0 1024 442
 
Mon26 00:00 -1 324.0 nw 3 4 77 4 0.0 1025 55
03:00 -2 282.0 wnw 2 4 84 17 0.0 1025 79
06:00 -3 281.0 w 3 7 89 6 0.0 1025 176
09:00 1 309.0 nw 7 11 73 100 0.0 1024 1065
12:00 3 312.0 nw 8 11 58 100 0.1 1023 1531
15:00 5 311.0 nw 9 11 54 100 0.2 1022 1828
18:00 6 321.0 nw 9 12 46 87 0.1 1022 1967
21:00 4 312.0 nw 7 12 59 100 0.1 1024 976
 
Tue27 00:00 2 310.0 nw 7 12 75 35 0.0 1026 808
03:00 1 317.0 nw 6 9 74 100 0.0 1027 1066
06:00 -0 292.0 wnw 5 10 83 85 0.0 1028 556
09:00 1 305.0 nw 5 8 70 81 0.1 1028 926
12:00 3 302.0 wnw 5 7 52 98 0.1 1027 1557
15:00 7 313.0 nw 6 8 37 84 0.1 1024 1943
18:00 8 305.0 nw 6 7 37 81 0.0 1023 1919
21:00 4 325.0 nw 3 4 52 5 0.0 1023 71
 
Wed28 00:00 1 44.0 ne 2 2 67 0 0.0 1024 10
03:00 -1 99.0 e 1 1 78 0 0.0 1023 10
06:00 -2 69.0 ene 2 2 82 52 0.0 1023 12
09:00 2 44.0 ne 2 2 62 14 0.0 1023 311
12:00 8 302.0 wnw 4 6 45 79 0.0 1022 1593
15:00 10 289.0 wnw 5 6 42 100 0.0 1021 2028
18:00 9 302.0 wnw 6 6 52 54 0.1 1021 1376
21:00 5 321.0 nw 3 5 66 5 0.1 1022 100
 

0.018 s